Time;durP1;ratioP1;P1;durP2;ratioP2;P2;SDS_P1;SDS_P2;PMS_P1;PMS_P2;Temp;Humidity;BMP_temperature;BMP_pressure;BME280_temperature;BME280_humidity;BME280_pressure;Samples;Min_cycle;Max_cycle;Signal;HPM_P1;HPM_P2
2021/06/25 00:02:28;;;;;;;10.40;9.18;;;22.20;71.10;;;;;;4947677;29;20173;-79
2021/06/25 00:04:57;;;;;;;10.75;9.38;;;22.20;71.10;;;;;;4931602;29;20189;-79
2021/06/25 00:07:25;;;;;;;10.98;9.30;;;22.20;71.10;;;;;;4914768;29;20189;-79
2021/06/25 00:09:54;;;;;;;10.60;8.73;;;22.30;71.10;;;;;;4899728;29;20232;-79
2021/06/25 00:12:21;;;;;;;11.00;9.25;;;22.20;71.10;;;;;;4931156;29;20190;-79
2021/06/25 00:14:50;;;;;;;10.35;8.80;;;22.20;71.10;;;;;;4947701;29;20237;-79
2021/06/25 00:17:21;;;;;;;10.68;9.30;;;22.20;71.10;;;;;;4931184;29;20640;-79
2021/06/25 00:19:53;;;;;;;10.65;9.18;;;22.20;71.10;;;;;;4930517;29;20254;-79
2021/06/25 00:22:24;;;;;;;9.95;8.63;;;22.20;71.10;;;;;;4930203;29;20654;-81
2021/06/25 00:24:51;;;;;;;10.55;9.02;;;22.30;71.20;;;;;;4931042;29;20182;-79
2021/06/25 00:27:16;;;;;;;10.40;9.13;;;22.20;71.20;;;;;;4931948;29;20202;-80
2021/06/25 00:29:47;;;;;;;9.63;8.45;;;22.20;71.20;;;;;;4946938;29;20237;-80
2021/06/25 00:32:16;;;;;;;10.40;9.18;;;22.20;71.20;;;;;;4914844;29;20182;-80
2021/06/25 00:34:46;;;;;;;10.55;9.18;;;22.20;71.30;;;;;;4899202;29;20213;-78
2021/06/25 00:37:16;;;;;;;10.68;9.15;;;22.20;71.20;;;;;;4931211;29;20189;-79
2021/06/25 00:39:45;;;;;;;10.88;8.75;;;22.30;71.20;;;;;;4915185;29;20190;-79
2021/06/25 00:42:13;;;;;;;10.80;9.27;;;22.20;71.30;;;;;;4914856;29;20254;-79
2021/06/25 00:44:42;;;;;;;11.45;10.25;;;22.20;71.10;;;;;;4915069;29;20198;-79
2021/06/25 00:47:13;;;;;;;11.27;8.75;;;22.20;71.10;;;;;;4932087;29;20193;-79
2021/06/25 00:49:40;;;;;;;11.18;9.30;;;22.20;71.10;;;;;;4918109;29;20696;-78
2021/06/25 00:52:13;;;;;;;10.77;9.13;;;22.20;71.20;;;;;;4918905;29;20182;-78
2021/06/25 00:54:44;;;;;;;10.68;9.07;;;22.20;71.20;;;;;;4918943;29;20190;-80
2021/06/25 00:57:13;;;;;;;10.80;9.30;;;22.10;71.20;;;;;;4933958;29;20582;-78
2021/06/25 00:59:43;;;;;;;11.40;9.85;;;22.20;71.40;;;;;;4918037;29;20550;-78
2021/06/25 01:02:11;;;;;;;10.68;8.98;;;22.20;71.50;;;;;;4933293;29;20324;-78
2021/06/25 01:04:39;;;;;;;11.30;9.32;;;22.20;71.40;;;;;;4918065;29;20190;-79
2021/06/25 01:07:07;;;;;;;10.40;8.93;;;22.20;71.40;;;;;;4933974;29;20250;-79
2021/06/25 01:09:36;;;;;;;11.15;9.57;;;22.10;71.30;;;;;;4917855;29;20213;-78
2021/06/25 01:12:06;;;;;;;10.40;9.10;;;22.20;71.40;;;;;;4918152;29;20186;-80
2021/06/25 01:14:34;;;;;;;11.40;9.40;;;22.20;71.30;;;;;;4918695;29;20221;-79
2021/06/25 01:17:02;;;;;;;11.23;9.52;;;22.20;71.40;;;;;;4917851;29;20189;-79
2021/06/25 01:19:28;;;;;;;11.18;9.68;;;22.20;71.40;;;;;;4917987;29;20192;-78
2021/06/25 01:21:55;;;;;;;10.95;9.40;;;22.20;71.40;;;;;;4965613;29;20268;-78
2021/06/25 01:24:22;;;;;;;11.05;9.82;;;22.10;71.30;;;;;;4932817;29;20245;-78
2021/06/25 01:26:52;;;;;;;10.48;8.88;;;22.20;71.40;;;;;;4917420;29;20182;-78
2021/06/25 01:29:22;;;;;;;11.07;9.40;;;22.10;71.30;;;;;;4916690;29;20297;-79
2021/06/25 01:31:49;;;;;;;10.68;9.20;;;22.20;71.40;;;;;;4949712;29;20225;-79
2021/06/25 01:34:23;;;;;;;10.75;9.50;;;22.20;71.40;;;;;;4917283;29;20194;-78
2021/06/25 01:36:51;;;;;;;11.48;9.45;;;22.10;71.30;;;;;;4933652;29;20241;-79
2021/06/25 01:39:21;;;;;;;11.27;9.52;;;22.20;71.40;;;;;;4932534;29;20181;-79
2021/06/25 01:41:48;;;;;;;11.15;9.70;;;22.20;71.20;;;;;;4917001;29;20193;-78
2021/06/25 01:44:14;;;;;;;11.05;9.63;;;22.10;71.20;;;;;;4916820;29;20198;-79
2021/06/25 01:46:41;;;;;;;12.32;10.02;;;22.20;71.40;;;;;;4934244;29;20178;-79
2021/06/25 01:49:14;;;;;;;12.55;10.15;;;22.20;71.30;;;;;;4948742;29;20196;-78
2021/06/25 01:51:46;;;;;;;10.95;9.50;;;22.20;71.30;;;;;;4949345;29;20174;-78
2021/06/25 01:54:17;;;;;;;11.55;9.95;;;22.10;71.30;;;;;;4932800;29;20268;-79
2021/06/25 01:56:46;;;;;;;11.50;9.60;;;22.20;71.40;;;;;;4917237;29;20186;-78
2021/06/25 01:59:15;;;;;;;11.70;9.65;;;22.20;71.40;;;;;;4900502;29;20605;-79
2021/06/25 02:01:43;;;;;;;11.02;9.40;;;22.20;71.40;;;;;;4901432;29;20590;-79
2021/06/25 02:04:14;;;;;;;11.52;9.85;;;22.20;71.40;;;;;;4916468;29;20201;-80
2021/06/25 02:06:45;;;;;;;11.30;9.88;;;22.10;71.30;;;;;;4916681;29;20217;-78
2021/06/25 02:09:15;;;;;;;11.50;9.52;;;22.10;71.30;;;;;;4932258;29;20688;-79
2021/06/25 02:11:46;;;;;;;11.02;9.40;;;22.10;71.40;;;;;;4916355;29;20178;-79
2021/06/25 02:14:18;;;;;;;11.43;9.50;;;22.20;71.40;;;;;;4931806;29;20222;-78
2021/06/25 02:16:46;;;;;;;10.57;9.43;;;22.10;71.30;;;;;;4932949;29;20205;-78
2021/06/25 02:19:14;;;;;;;11.15;9.80;;;22.20;71.40;;;;;;4916263;29;20202;-78
2021/06/25 02:21:46;;;;;;;12.07;9.90;;;22.20;71.40;;;;;;4916818;29;20221;-79
2021/06/25 02:24:15;;;;;;;11.75;9.88;;;22.10;71.30;;;;;;4916768;29;20190;-79
2021/06/25 02:26:46;;;;;;;11.40;9.65;;;22.10;71.30;;;;;;4916305;29;20200;-79
2021/06/25 02:29:13;;;;;;;10.93;9.23;;;22.10;71.20;;;;;;4900865;29;20225;-78
2021/06/25 02:31:41;;;;;;;11.00;9.27;;;22.20;71.40;;;;;;4915732;29;20178;-79
2021/06/25 02:34:08;;;;;;;11.20;9.25;;;22.10;71.30;;;;;;4931913;29;20269;-79
2021/06/25 02:36:42;;;;;;;10.75;9.32;;;22.10;71.30;;;;;;4932007;29;20249;-79
2021/06/25 02:39:09;;;;;;;11.73;9.70;;;22.20;71.50;;;;;;4900649;29;20261;-80
2021/06/25 02:41:36;;;;;;;11.52;9.70;;;22.10;71.40;;;;;;4916043;29;20282;-79
2021/06/25 02:44:05;;;;;;;10.55;9.02;;;22.20;71.40;;;;;;4932736;29;20194;-80
2021/06/25 02:46:34;;;;;;;12.27;9.48;;;22.10;71.30;;;;;;4915909;29;20197;-81
2021/06/25 02:48:59;;;;;;;10.82;9.50;;;22.10;71.30;;;;;;4914963;29;20302;-79
2021/06/25 02:51:28;;;;;;;11.00;9.80;;;22.20;72.20;;;;;;4931942;29;20189;-81
2021/06/25 02:53:57;;;;;;;10.75;9.65;;;22.20;71.30;;;;;;4915402;29;20249;-80
2021/06/25 02:56:25;;;;;;;10.35;9.00;;;22.10;71.20;;;;;;4931996;29;20189;-80
2021/06/25 02:58:53;;;;;;;11.07;9.10;;;22.20;71.30;;;;;;4948299;29;20182;-79
2021/06/25 03:01:18;;;;;;;11.75;9.73;;;22.20;71.20;;;;;;4915321;29;20225;-79
2021/06/25 03:03:46;;;;;;;9.88;8.88;;;22.20;71.10;;;;;;4947803;29;20166;-81
2021/06/25 03:06:18;;;;;;;11.65;10.10;;;22.20;71.20;;;;;;4915625;29;20190;-78
2021/06/25 03:08:45;;;;;;;11.13;9.50;;;22.20;71.20;;;;;;4915459;29;20199;-79
2021/06/25 03:11:12;;;;;;;11.27;9.50;;;22.20;72.00;;;;;;4898837;29;20551;-80
2021/06/25 03:13:43;;;;;;;10.88;9.38;;;22.20;71.30;;;;;;4915217;29;20601;-79
2021/06/25 03:16:14;;;;;;;10.85;9.35;;;22.20;71.20;;;;;;4914886;29;20181;-79
2021/06/25 03:18:41;;;;;;;11.13;9.48;;;22.20;71.10;;;;;;4915769;29;20208;-79
2021/06/25 03:21:07;;;;;;;11.32;9.45;;;22.20;71.10;;;;;;4931314;29;20195;-79
2021/06/25 03:23:34;;;;;;;11.65;9.50;;;22.20;71.20;;;;;;4931395;29;20220;-78
2021/06/25 03:26:01;;;;;;;10.60;9.50;;;22.20;71.10;;;;;;4931193;29;20213;-79
2021/06/25 03:28:26;;;;;;;11.23;9.45;;;22.20;71.20;;;;;;4931200;29;20221;-78
2021/06/25 03:30:55;;;;;;;11.10;9.02;;;22.20;71.20;;;;;;4931587;29;20210;-79
2021/06/25 03:33:24;;;;;;;10.70;9.15;;;22.10;71.10;;;;;;4915187;29;20213;-79
2021/06/25 03:35:50;;;;;;;11.98;10.13;;;22.20;71.10;;;;;;4931574;29;20193;-79
2021/06/25 03:38:19;;;;;;;10.88;9.57;;;22.10;71.10;;;;;;4947822;29;20162;-79
2021/06/25 03:40:50;;;;;;;13.73;10.48;;;22.20;71.10;;;;;;4915337;29;20653;-78
2021/06/25 03:43:17;;;;;;;10.45;9.32;;;22.20;71.20;;;;;;4915153;29;20194;-79
2021/06/25 03:45:44;;;;;;;12.80;10.10;;;22.20;71.20;;;;;;4930693;29;20181;-78
2021/06/25 03:48:10;;;;;;;11.52;9.77;;;22.10;71.10;;;;;;4931555;29;20203;-78
2021/06/25 03:50:37;;;;;;;10.55;8.70;;;22.20;71.10;;;;;;4948714;29;20241;-78
2021/06/25 03:53:05;;;;;;;12.55;9.65;;;22.20;71.10;;;;;;4915059;29;20190;-79
2021/06/25 03:55:33;;;;;;;11.77;9.88;;;22.20;71.20;;;;;;4899134;29;20186;-79
2021/06/25 03:58:04;;;;;;;11.73;9.77;;;22.10;71.20;;;;;;4915949;29;20216;-78
2021/06/25 04:00:32;;;;;;;11.90;9.88;;;22.20;71.20;;;;;;4914958;29;20205;-78
2021/06/25 04:03:03;;;;;;;12.15;9.80;;;22.10;71.20;;;;;;4914832;29;20229;-79
2021/06/25 04:05:33;;;;;;;12.25;9.80;;;22.10;71.20;;;;;;4931064;29;20213;-78
2021/06/25 04:08:01;;;;;;;11.32;9.38;;;22.20;71.20;;;;;;4899226;29;20182;-80
2021/06/25 04:10:31;;;;;;;11.38;9.50;;;22.10;71.20;;;;;;4915192;29;20228;-80
2021/06/25 04:13:01;;;;;;;11.82;10.23;;;22.10;71.10;;;;;;4915313;29;20194;-78
2021/06/25 04:15:29;;;;;;;10.77;9.07;;;22.20;71.20;;;;;;4900065;29;20178;-78
2021/06/25 04:17:59;;;;;;;11.50;9.77;;;22.10;71.40;;;;;;4914288;29;20186;-78
2021/06/25 04:20:31;;;;;;;10.88;9.32;;;22.10;71.60;;;;;;4915628;29;20193;-78
2021/06/25 04:23:04;;;;;;;11.52;9.35;;;22.10;72.00;;;;;;4902508;29;20182;-79
2021/06/25 04:25:31;;;;;;;10.57;9.23;;;22.00;72.30;;;;;;4919023;29;20221;-81
2021/06/25 04:27:57;;;;;;;10.25;8.93;;;22.00;72.60;;;;;;4934688;29;20265;-80
2021/06/25 04:30:23;;;;;;;11.30;9.23;;;21.90;72.80;;;;;;4934462;29;20202;-80
2021/06/25 04:32:50;;;;;;;10.43;8.93;;;21.90;73.00;;;;;;4934889;29;20289;-78
2021/06/25 04:35:20;;;;;;;10.73;8.93;;;21.90;73.20;;;;;;4951194;29;20158;-78
2021/06/25 04:37:46;;;;;;;10.93;8.80;;;21.90;73.50;;;;;;4902615;29;20754;-79
2021/06/25 04:40:13;;;;;;;11.85;9.30;;;21.90;73.70;;;;;;4950479;29;20164;-79
2021/06/25 04:42:44;;;;;;;12.50;9.10;;;21.90;73.90;;;;;;4949991;29;20175;-78
2021/06/25 04:45:10;;;;;;;10.95;9.00;;;21.80;73.90;;;;;;4918565;29;20186;-79
2021/06/25 04:47:43;;;;;;;10.10;8.57;;;21.80;74.10;;;;;;4950081;29;20150;-79
2021/06/25 04:50:11;;;;;;;10.38;8.90;;;21.80;74.30;;;;;;4918247;29;20339;-78
2021/06/25 04:52:38;;;;;;;10.50;8.88;;;21.70;74.50;;;;;;4917926;29;20205;-79
2021/06/25 04:55:06;;;;;;;9.95;8.68;;;21.70;74.70;;;;;;4919073;29;20190;-79
2021/06/25 04:57:36;;;;;;;11.25;9.25;;;21.70;74.70;;;;;;4949910;29;20162;-79
2021/06/25 05:00:07;;;;;;;10.35;8.23;;;21.70;74.90;;;;;;4949747;29;20201;-79
2021/06/25 05:02:33;;;;;;;10.73;8.73;;;21.70;75.20;;;;;;4950960;29;20158;-79
2021/06/25 05:05:03;;;;;;;10.77;9.10;;;21.70;75.20;;;;;;4950573;29;20167;-79
2021/06/25 05:07:29;;;;;;;10.90;8.60;;;21.70;75.40;;;;;;4917332;29;20315;-80
2021/06/25 05:09:56;;;;;;;10.48;8.80;;;21.60;75.60;;;;;;4950198;29;20194;-78
2021/06/25 05:12:23;;;;;;;10.35;8.52;;;21.60;75.60;;;;;;4950446;29;20170;-80
2021/06/25 05:14:49;;;;;;;10.35;8.73;;;21.60;75.90;;;;;;4950840;29;20157;-80
2021/06/25 05:17:15;;;;;;;9.93;8.43;;;21.60;76.00;;;;;;4951206;29;20185;-79
2021/06/25 05:19:47;;;;;;;9.50;8.50;;;21.60;76.20;;;;;;4950340;29;20181;-80
2021/06/25 05:22:13;;;;;;;11.30;9.07;;;21.60;76.30;;;;;;4917570;29;20189;-79
2021/06/25 05:24:43;;;;;;;9.95;8.32;;;21.60;76.30;;;;;;4950316;29;20214;-79
2021/06/25 05:27:09;;;;;;;10.00;8.50;;;21.60;76.50;;;;;;4917367;29;20201;-79
2021/06/25 05:29:35;;;;;;;11.30;9.18;;;21.60;76.70;;;;;;4950165;29;20237;-80
2021/06/25 05:32:05;;;;;;;10.05;8.35;;;21.50;76.70;;;;;;4949518;29;20165;-79
2021/06/25 05:34:31;;;;;;;11.30;8.25;;;21.50;76.70;;;;;;4933256;29;20186;-80
2021/06/25 05:36:57;;;;;;;9.73;8.65;;;21.50;76.90;;;;;;4950160;29;20169;-78
2021/06/25 05:39:23;;;;;;;9.75;8.10;;;21.50;77.00;;;;;;4950844;29;20162;-79
2021/06/25 05:41:50;;;;;;;10.30;8.60;;;21.60;77.30;;;;;;4950382;29;20169;-79
2021/06/25 05:44:16;;;;;;;10.93;9.20;;;21.60;77.50;;;;;;4950180;29;20173;-78
2021/06/25 05:46:47;;;;;;;10.02;8.32;;;21.50;77.50;;;;;;4933784;29;20170;-79
2021/06/25 05:49:18;;;;;;;10.95;8.98;;;21.50;77.70;;;;;;4917154;29;20320;-79
2021/06/25 05:51:49;;;;;;;10.48;8.73;;;21.60;77.80;;;;;;4917271;29;20637;-80
2021/06/25 05:54:20;;;;;;;10.38;8.70;;;21.50;77.80;;;;;;4933341;29;20206;-79
2021/06/25 05:56:57;;;;;;;10.23;8.32;;;21.50;77.80;;;;;;4917144;29;20194;-78
2021/06/25 05:59:28;;;;;;;10.73;8.68;;;21.50;78.00;;;;;;4916878;29;20212;-79
2021/06/25 06:01:54;;;;;;;10.65;8.93;;;21.50;78.10;;;;;;4917251;29;20198;-79
2021/06/25 06:04:24;;;;;;;9.90;8.05;;;21.50;79.10;;;;;;4949486;29;20661;-79
2021/06/25 06:06:56;;;;;;;10.48;8.98;;;21.50;78.50;;;;;;4917598;29;20186;-79
2021/06/25 06:09:22;;;;;;;10.15;8.55;;;21.50;78.60;;;;;;4916977;29;20218;-79
2021/06/25 06:11:52;;;;;;;10.45;8.38;;;21.50;78.80;;;;;;4949286;29;20309;-79
2021/06/25 06:14:18;;;;;;;10.85;8.68;;;21.50;78.90;;;;;;4932570;29;20190;-79
2021/06/25 06:16:48;;;;;;;9.57;8.35;;;21.50;79.00;;;;;;4948048;29;20166;-79
2021/06/25 06:19:20;;;;;;;11.05;8.82;;;21.40;79.20;;;;;;4933440;29;20218;-79
2021/06/25 06:32:59;;;;;;;10.70;8.70;;;21.50;79.50;;;;;;4950193;29;20178;-78
2021/06/25 06:35:25;;;;;;;10.80;8.65;;;21.40;79.60;;;;;;4933652;29;20185;-79
2021/06/25 06:37:54;;;;;;;11.40;8.88;;;21.40;79.80;;;;;;4949347;29;20225;-80
2021/06/25 06:40:20;;;;;;;10.18;8.68;;;21.40;79.90;;;;;;4948972;29;20190;-80
2021/06/25 06:42:52;;;;;;;11.07;8.82;;;21.40;80.00;;;;;;4949513;29;20170;-78
2021/06/25 06:45:24;;;;;;;11.27;8.95;;;21.40;80.10;;;;;;4915083;29;20197;-79
2021/06/25 06:47:51;;;;;;;10.75;9.00;;;21.40;80.20;;;;;;4916031;29;20193;-79
2021/06/25 06:50:20;;;;;;;10.60;8.82;;;21.40;80.30;;;;;;4915941;29;20689;-79
2021/06/25 06:52:55;;;;;;;11.60;9.13;;;21.40;80.40;;;;;;4915848;29;20182;-80
2021/06/25 06:55:22;;;;;;;11.45;9.25;;;21.40;80.60;;;;;;4931968;29;20245;-79
2021/06/25 06:57:55;;;;;;;12.07;9.50;;;21.30;80.50;;;;;;4949611;29;20170;-79
2021/06/25 07:00:22;;;;;;;11.20;8.93;;;21.40;80.50;;;;;;4916648;29;20190;-79
2021/06/25 07:02:54;;;;;;;10.13;8.65;;;21.30;80.70;;;;;;4948208;29;20166;-80
2021/06/25 07:05:24;;;;;;;9.68;8.13;;;21.30;80.90;;;;;;4915876;29;20189;-79
2021/06/25 07:07:56;;;;;;;11.02;8.95;;;21.30;81.00;;;;;;4931736;29;20220;-80
2021/06/25 07:10:26;;;;;;;11.38;9.13;;;21.30;81.30;;;;;;4915078;29;20276;-79
2021/06/25 07:12:52;;;;;;;11.50;9.27;;;21.40;81.20;;;;;;4915605;29;20193;-80
2021/06/25 07:15:19;;;;;;;10.95;8.75;;;21.40;81.30;;;;;;4948125;29;20170;-79
2021/06/25 07:17:45;;;;;;;10.38;8.75;;;21.30;81.50;;;;;;4948574;29;20214;-80
2021/06/25 07:20:14;;;;;;;10.05;8.15;;;21.30;81.70;;;;;;4932354;29;20166;-79
2021/06/25 07:22:41;;;;;;;10.70;8.70;;;21.30;81.70;;;;;;4931717;29;20721;-80
2021/06/25 07:25:10;;;;;;;10.38;8.65;;;21.40;82.00;;;;;;4948807;29;20162;-79
2021/06/25 07:27:36;;;;;;;10.65;8.70;;;21.30;82.20;;;;;;4948357;29;20165;-80
2021/06/25 07:30:07;;;;;;;10.35;8.15;;;21.30;82.10;;;;;;4948304;29;20300;-79
2021/06/25 07:32:38;;;;;;;11.18;9.48;;;21.30;82.50;;;;;;4915868;29;20241;-80
2021/06/25 07:35:05;;;;;;;10.98;8.63;;;21.30;82.20;;;;;;4899559;29;20186;-80
2021/06/25 07:37:31;;;;;;;9.68;8.25;;;21.30;82.60;;;;;;4947478;29;20197;-80
2021/06/25 07:40:03;;;;;;;11.82;8.15;;;21.30;82.60;;;;;;4948016;29;20170;-79
2021/06/25 07:42:29;;;;;;;9.93;8.20;;;21.30;82.90;;;;;;4930582;29;20269;-79
2021/06/25 07:44:56;;;;;;;9.98;8.20;;;21.30;83.00;;;;;;4948500;29;20174;-79
2021/06/25 07:47:26;;;;;;;11.50;9.32;;;21.30;83.00;;;;;;4947793;29;20169;-79
2021/06/25 07:49:57;;;;;;;10.90;8.65;;;21.30;83.10;;;;;;4916464;29;20235;-79
2021/06/25 07:52:27;;;;;;;10.52;8.25;;;21.30;83.20;;;;;;4915573;29;20196;-79
2021/06/25 07:54:57;;;;;;;10.68;8.82;;;21.30;83.40;;;;;;4931478;29;20208;-80
2021/06/25 07:57:26;;;;;;;10.45;8.57;;;21.30;83.40;;;;;;4935259;29;20197;-79
2021/06/25 07:59:56;;;;;;;10.07;8.32;;;21.30;83.40;;;;;;4919514;29;20226;-79
2021/06/25 08:02:26;;;;;;;11.05;8.60;;;21.30;83.50;;;;;;4903710;29;20205;-79
2021/06/25 08:04:56;;;;;;;10.52;8.85;;;21.20;83.80;;;;;;4934922;29;20557;-80
2021/06/25 08:07:26;;;;;;;10.48;8.50;;;21.30;83.90;;;;;;4935126;29;20217;-80
2021/06/25 08:09:58;;;;;;;10.05;8.48;;;21.30;84.00;;;;;;4918087;29;20234;-80
2021/06/25 08:12:30;;;;;;;10.48;8.57;;;21.30;84.10;;;;;;4918570;29;20192;-79
2021/06/25 08:14:59;;;;;;;10.40;8.32;;;21.20;84.30;;;;;;4935219;29;20208;-79
2021/06/25 08:17:27;;;;;;;10.90;9.15;;;21.30;84.50;;;;;;4918290;29;20190;-80
2021/06/25 08:19:56;;;;;;;10.27;8.38;;;21.30;84.50;;;;;;4935002;29;20193;-80
2021/06/25 08:22:25;;;;;;;10.32;8.38;;;21.20;85.40;;;;;;4934392;29;20198;-79
2021/06/25 08:24:53;;;;;;;10.50;8.38;;;21.30;84.70;;;;;;4903122;29;20186;-79
2021/06/25 08:27:22;;;;;;;9.55;8.35;;;21.30;84.60;;;;;;4904149;29;20213;-78
2021/06/25 08:29:53;;;;;;;11.38;8.95;;;21.30;84.60;;;;;;4918801;29;20248;-78
2021/06/25 08:32:21;;;;;;;10.43;8.60;;;21.30;84.70;;;;;;4934824;29;20189;-78
2021/06/25 08:34:51;;;;;;;10.73;8.68;;;21.30;84.80;;;;;;4934631;29;20186;-80
2021/06/25 08:37:19;;;;;;;10.18;8.50;;;21.30;84.90;;;;;;4935032;29;20190;-79
2021/06/25 08:39:48;;;;;;;11.00;8.57;;;21.30;85.10;;;;;;4934683;29;20192;-79
2021/06/25 08:42:16;;;;;;;10.95;9.02;;;21.20;85.20;;;;;;4902493;29;20186;-79
2021/06/25 08:44:46;;;;;;;10.07;8.43;;;21.30;85.70;;;;;;4935418;29;20205;-79
2021/06/25 08:47:14;;;;;;;10.18;8.60;;;21.30;85.70;;;;;;4904410;29;20197;-79
2021/06/25 08:49:47;;;;;;;10.77;8.32;;;21.30;85.60;;;;;;4919084;29;20284;-79
2021/06/25 08:52:14;;;;;;;10.43;8.05;;;21.20;85.90;;;;;;4919479;29;20182;-79
2021/06/25 08:54:43;;;;;;;9.98;8.20;;;21.30;86.00;;;;;;4903753;29;20403;-79
2021/06/25 08:57:10;;;;;;;9.48;8.07;;;21.30;86.10;;;;;;4903535;29;20182;-79
2021/06/25 08:59:47;;;;;;;9.32;8.27;;;21.30;86.30;;;;;;4935102;29;20253;-79
2021/06/25 09:02:19;;;;;;;10.38;8.57;;;21.20;86.40;;;;;;4918397;29;20217;-79
2021/06/25 09:04:46;;;;;;;10.25;8.23;;;21.30;86.60;;;;;;4918546;29;20192;-79
2021/06/25 09:07:16;;;;;;;9.82;8.23;;;21.30;86.70;;;;;;4934114;29;20174;-78
2021/06/25 09:09:46;;;;;;;10.35;8.27;;;21.30;87.20;;;;;;4918815;29;20306;-78
2021/06/25 09:12:22;;;;;;;10.48;8.50;;;21.30;87.60;;;;;;4918706;29;20186;-79
2021/06/25 09:15:11;;;;;;;10.00;8.02;;;21.20;87.60;;;;;;4951691;29;20189;-78
2021/06/25 09:17:57;;;;;;;10.15;8.35;;;21.20;88.20;;;;;;4950122;29;20185;-79
2021/06/25 09:20:50;;;;;;;9.20;7.85;;;21.20;88.20;;;;;;4950997;29;20221;-79
2021/06/25 09:23:38;;;;;;;9.88;7.90;;;21.30;89.00;;;;;;4950531;29;20621;-80
2021/06/25 09:26:06;;;;;;;10.50;8.48;;;21.30;88.60;;;;;;4950788;29;20257;-79
2021/06/25 09:28:40;;;;;;;9.25;8.02;;;21.30;88.90;;;;;;4949762;29;20214;-80
2021/06/25 09:31:22;;;;;;;10.00;8.30;;;21.30;88.30;;;;;;4949814;29;20186;-80
2021/06/25 09:33:53;;;;;;;9.27;7.78;;;21.40;88.10;;;;;;4949711;29;20154;-79
2021/06/25 09:36:29;;;;;;;10.05;8.48;;;21.40;87.90;;;;;;4917182;29;20213;-79
2021/06/25 09:39:02;;;;;;;10.05;7.95;;;21.40;87.90;;;;;;4949874;29;20190;-79
2021/06/25 09:41:28;;;;;;;10.23;8.32;;;21.40;88.10;;;;;;4949910;29;20516;-79
2021/06/25 09:44:03;;;;;;;9.73;8.15;;;21.40;88.10;;;;;;4933965;29;20166;-79
2021/06/25 09:46:31;;;;;;;9.25;8.10;;;21.40;87.70;;;;;;4965988;29;20251;-79
2021/06/25 09:48:59;;;;;;;9.60;8.05;;;21.40;87.50;;;;;;4934202;29;20230;-79
2021/06/25 09:51:26;;;;;;;10.75;8.63;;;21.50;87.30;;;;;;4949144;29;20182;-79
2021/06/25 09:54:10;;;;;;;9.48;8.32;;;21.40;87.10;;;;;;4949911;29;20197;-79
2021/06/25 09:56:42;;;;;;;10.18;8.52;;;21.40;87.00;;;;;;4918999;29;20182;-79
2021/06/25 09:59:33;;;;;;;9.98;8.07;;;21.40;87.10;;;;;;4949716;29;20182;-78
2021/06/25 10:02:17;;;;;;;9.93;8.35;;;21.40;87.10;;;;;;4919577;29;20182;-79
2021/06/25 10:04:45;;;;;;;10.18;8.32;;;21.40;87.10;;;;;;4950735;29;20177;-79
2021/06/25 10:07:15;;;;;;;8.82;7.93;;;21.40;87.80;;;;;;4951093;29;20158;-79
2021/06/25 10:09:42;;;;;;;8.77;7.78;;;21.50;86.90;;;;;;4949693;29;20245;-80
2021/06/25 10:12:16;;;;;;;9.10;7.65;;;21.40;86.50;;;;;;4933905;29;20189;-79
2021/06/25 10:14:43;;;;;;;10.07;7.95;;;21.40;87.10;;;;;;4949969;29;20166;-79
2021/06/25 10:17:13;;;;;;;9.75;7.80;;;21.50;86.20;;;;;;4949732;29;20162;-79
2021/06/25 10:19:51;;;;;;;10.13;8.18;;;21.50;85.80;;;;;;4932161;29;20345;-79
2021/06/25 10:22:24;;;;;;;9.90;8.07;;;21.50;85.90;;;;;;4933063;29;20196;-79
2021/06/25 10:24:53;;;;;;;9.63;7.93;;;21.50;85.60;;;;;;4918684;29;20283;-79
2021/06/25 10:27:21;;;;;;;9.48;8.20;;;21.50;85.60;;;;;;4932508;29;20182;-79
2021/06/25 10:29:51;;;;;;;8.65;7.75;;;21.40;85.20;;;;;;4900757;29;20233;-80
2021/06/25 10:32:17;;;;;;;10.18;8.43;;;21.50;84.70;;;;;;4949145;29;20173;-79
2021/06/25 10:34:45;;;;;;;8.27;7.38;;;21.50;84.80;;;;;;4949388;29;20161;-79
2021/06/25 10:37:28;;;;;;;8.75;7.78;;;21.50;84.60;;;;;;4949052;29;20235;-79
2021/06/25 10:39:57;;;;;;;8.02;7.00;;;21.50;84.40;;;;;;4948734;29;20165;-79
2021/06/25 10:42:40;;;;;;;9.23;7.55;;;21.50;83.70;;;;;;4948618;29;20166;-79
2021/06/25 10:45:08;;;;;;;8.57;7.63;;;21.50;83.10;;;;;;4948496;29;20218;-79
2021/06/25 10:47:34;;;;;;;8.82;7.25;;;21.50;82.80;;;;;;4947737;29;20218;-79
2021/06/25 10:50:18;;;;;;;9.05;7.82;;;21.50;82.60;;;;;;4933029;29;20201;-79
2021/06/25 10:53:06;;;;;;;8.98;7.45;;;21.50;82.60;;;;;;4948557;29;20173;-80
2021/06/25 10:55:32;;;;;;;8.82;7.88;;;21.50;82.50;;;;;;4948529;29;20190;-80
2021/06/25 10:58:06;;;;;;;9.20;7.55;;;21.60;82.60;;;;;;4948490;29;20674;-79
2021/06/25 11:00:55;;;;;;;9.75;7.85;;;21.50;82.50;;;;;;4948590;29;20170;-79
2021/06/25 11:03:43;;;;;;;8.70;7.20;;;21.50;82.60;;;;;;4935831;29;20174;-79
2021/06/25 11:06:51;;;;;;;8.05;7.10;;;21.60;82.40;;;;;;4948303;29;20162;-80
2021/06/25 11:09:16;;;;;;;6.95;6.20;;;21.50;82.30;;;;;;4934908;29;20665;-80
2021/06/25 11:11:42;;;;;;;8.65;7.40;;;21.50;82.10;;;;;;4948618;29;20169;-80
2021/06/25 11:14:24;;;;;;;7.50;6.70;;;21.50;82.00;;;;;;4948514;29;20166;-79
2021/06/25 11:16:50;;;;;;;8.25;6.75;;;21.50;81.40;;;;;;4932435;29;20184;-79
2021/06/25 11:19:34;;;;;;;7.50;6.55;;;21.50;81.40;;;;;;4948579;29;20170;-79
2021/06/25 11:22:03;;;;;;;7.60;6.60;;;21.50;81.50;;;;;;4947698;29;20177;-80
2021/06/25 11:24:50;;;;;;;7.70;6.90;;;21.50;81.50;;;;;;4947876;29;20154;-79
2021/06/25 11:27:16;;;;;;;8.32;7.13;;;21.50;81.70;;;;;;4948750;29;20196;-80
2021/06/25 11:29:45;;;;;;;8.02;6.93;;;21.50;81.60;;;;;;4932358;29;20234;-80
2021/06/25 11:32:12;;;;;;;8.50;7.00;;;21.50;81.50;;;;;;4948176;29;20213;-80
2021/06/25 11:34:42;;;;;;;8.38;7.13;;;21.50;81.30;;;;;;4948290;29;20185;-79
2021/06/25 11:37:08;;;;;;;7.70;6.78;;;21.60;81.30;;;;;;4948360;29;20165;-80
2021/06/25 11:39:35;;;;;;;7.30;6.50;;;21.60;81.40;;;;;;4948040;29;20162;-80
2021/06/25 11:42:08;;;;;;;8.80;7.50;;;21.60;81.40;;;;;;4948208;29;20162;-80
2021/06/25 11:44:42;;;;;;;8.10;6.93;;;21.60;81.20;;;;;;4932486;29;20170;-79
2021/06/25 11:47:15;;;;;;;8.23;6.82;;;21.60;81.30;;;;;;4932535;29;20174;-80
2021/06/25 11:49:47;;;;;;;7.82;7.03;;;21.60;81.40;;;;;;4947498;29;20194;-80
2021/06/25 11:52:16;;;;;;;8.30;7.38;;;21.60;81.20;;;;;;4949057;29;20158;-79
2021/06/25 11:54:45;;;;;;;7.65;6.72;;;21.70;80.70;;;;;;4948340;29;20154;-80
2021/06/25 11:57:25;;;;;;;7.97;6.75;;;21.80;80.40;;;;;;4947749;29;20173;-79
2021/06/25 12:00:08;;;;;;;8.63;7.22;;;21.80;80.20;;;;;;4948023;29;20245;-80
2021/06/25 12:02:43;;;;;;;7.78;6.68;;;21.80;79.60;;;;;;4932067;29;20735;-80
2021/06/25 12:05:11;;;;;;;8.40;7.38;;;22.00;79.50;;;;;;4932327;29;20209;-80
2021/06/25 12:07:36;;;;;;;9.05;7.85;;;21.80;79.30;;;;;;4948094;29;20154;-80
2021/06/25 12:10:08;;;;;;;9.23;7.75;;;21.90;79.70;;;;;;4949073;29;20194;-80
2021/06/25 12:12:39;;;;;;;8.80;7.90;;;22.00;79.50;;;;;;4931369;29;20193;-80
2021/06/25 12:15:13;;;;;;;8.85;7.25;;;22.00;79.40;;;;;;4931986;29;20321;-80
2021/06/25 12:17:46;;;;;;;7.85;7.05;;;22.00;79.20;;;;;;4931994;29;20186;-80
2021/06/25 12:20:18;;;;;;;8.10;7.20;;;22.00;79.20;;;;;;4931500;29;20211;-80
2021/06/25 12:22:49;;;;;;;8.93;7.82;;;22.00;79.20;;;;;;4900133;29;20194;-80
2021/06/25 12:25:42;;;;;;;8.68;7.60;;;22.00;79.60;;;;;;4931557;29;20205;-80
2021/06/25 12:28:08;;;;;;;8.27;7.30;;;22.00;79.40;;;;;;4916372;29;20716;-79
2021/06/25 12:30:40;;;;;;;9.25;7.65;;;22.00;79.60;;;;;;4947731;29;20198;-80
2021/06/25 12:33:11;;;;;;;7.57;6.75;;;22.00;79.70;;;;;;4915331;29;20214;-79
2021/06/25 12:35:50;;;;;;;9.32;7.82;;;22.00;79.60;;;;;;4915707;29;20192;-80
2021/06/25 12:38:21;;;;;;;8.65;7.22;;;22.00;79.40;;;;;;4916183;29;20248;-79
2021/06/25 12:40:53;;;;;;;8.60;7.57;;;22.10;79.20;;;;;;4915946;29;20249;-79
2021/06/25 12:43:45;;;;;;;8.90;7.55;;;22.10;78.90;;;;;;4917452;29;20189;-80
2021/06/25 12:46:17;;;;;;;9.32;7.93;;;22.20;78.80;;;;;;4921886;29;20217;-80
2021/06/25 12:48:47;;;;;;;9.00;7.80;;;22.10;79.00;;;;;;4934206;29;20213;-80
2021/06/25 12:51:15;;;;;;;8.60;7.50;;;22.10;79.20;;;;;;4934185;29;20367;-80
2021/06/25 12:53:49;;;;;;;8.93;7.60;;;22.00;79.40;;;;;;4950992;29;20158;-80
2021/06/25 12:56:21;;;;;;;9.45;7.88;;;22.10;79.20;;;;;;4934970;29;20639;-79
2021/06/25 12:58:55;;;;;;;9.00;7.78;;;22.00;79.10;;;;;;4951141;29;20610;-80
2021/06/25 13:01:22;;;;;;;9.98;8.10;;;22.10;79.00;;;;;;4952185;29;20552;-79
2021/06/25 13:03:48;;;;;;;8.40;7.25;;;22.10;79.00;;;;;;4934856;29;20206;-80
2021/06/25 13:06:28;;;;;;;7.90;7.03;;;22.20;78.70;;;;;;4950179;29;20196;-80
2021/06/25 13:08:54;;;;;;;8.13;7.13;;;22.20;78.60;;;;;;4950840;29;20165;-80